sensor_id;sensor_type;location;lat;lon;timestamp;pressure;altitude;pressure_sealevel;temperature
73734;BMP280;62039;50.000;9.064;2024-02-28T00:00:40;100482.53;;;5.08
73734;BMP280;62039;50.000;9.064;2024-02-28T00:03:10;100481.16;;;5.04
73734;BMP280;62039;50.000;9.064;2024-02-28T00:05:37;100481.38;;;5.01
73734;BMP280;62039;50.000;9.064;2024-02-28T00:08:04;100481.63;;;4.98
73734;BMP280;62039;50.000;9.064;2024-02-28T00:10:32;100481.97;;;4.94
73734;BMP280;62039;50.000;9.064;2024-02-28T00:12:59;100480.47;;;4.91
73734;BMP280;62039;50.000;9.064;2024-02-28T00:15:26;100480.69;;;4.88
73734;BMP280;62039;50.000;9.064;2024-02-28T00:17:54;100484.34;;;4.86
73734;BMP280;62039;50.000;9.064;2024-02-28T00:20:24;100488.00;;;4.83
73734;BMP280;62039;50.000;9.064;2024-02-28T00:22:51;100488.22;;;4.80
73734;BMP280;62039;50.000;9.064;2024-02-28T00:25:18;100496.97;;;4.79
73734;BMP280;62039;50.000;9.064;2024-02-28T00:27:45;100499.66;;;4.78
73734;BMP280;62039;50.000;9.064;2024-02-28T00:30:12;100497.28;;;4.75
73734;BMP280;62039;50.000;9.064;2024-02-28T00:32:39;100494.94;;;4.72
73734;BMP280;62039;50.000;9.064;2024-02-28T00:35:07;100498.59;;;4.69
73734;BMP280;62039;50.000;9.064;2024-02-28T00:37:36;100507.41;;;4.66
73734;BMP280;62039;50.000;9.064;2024-02-28T00:40:04;100495.53;;;4.64
73734;BMP280;62039;50.000;9.064;2024-02-28T00:42:31;100500.00;;;4.62
73734;BMP280;62039;50.000;9.064;2024-02-28T00:44:58;100498.59;;;4.58
73734;BMP280;62039;50.000;9.064;2024-02-28T00:47:25;100507.41;;;4.55
73734;BMP280;62039;50.000;9.064;2024-02-28T00:49:52;100511.03;;;4.53
73734;BMP280;62039;50.000;9.064;2024-02-28T00:52:19;100513.03;;;4.49
73734;BMP280;62039;50.000;9.064;2024-02-28T00:54:49;100508.81;;;4.48
73734;BMP280;62039;50.000;9.064;2024-02-28T00:57:16;100508.91;;;4.47
73734;BMP280;62039;50.000;9.064;2024-02-28T00:59:43;100517.84;;;4.43
73734;BMP280;62039;50.000;9.064;2024-02-28T01:02:10;100517.13;;;4.41
73734;BMP280;62039;50.000;9.064;2024-02-28T01:04:37;100522.56;;;4.38
73734;BMP280;62039;50.000;9.064;2024-02-28T01:07:04;100526.91;;;4.37
73734;BMP280;62039;50.000;9.064;2024-02-28T01:09:30;100529.72;;;4.34
73734;BMP280;62039;50.000;9.064;2024-02-28T01:12:00;100529.03;;;4.32
73734;BMP280;62039;50.000;9.064;2024-02-28T01:14:27;100536.88;;;4.30
73734;BMP280;62039;50.000;9.064;2024-02-28T01:16:54;100543.09;;;4.28
73734;BMP280;62039;50.000;9.064;2024-02-28T01:19:21;100544.19;;;4.25
73734;BMP280;62039;50.000;9.064;2024-02-28T01:21:48;100541.69;;;4.24
73734;BMP280;62039;50.000;9.064;2024-02-28T01:24:15;100539.22;;;4.22
73734;BMP280;62039;50.000;9.064;2024-02-28T01:26:42;100538.63;;;4.19
73734;BMP280;62039;50.000;9.064;2024-02-28T01:29:11;100536.16;;;4.17
73734;BMP280;62039;50.000;9.064;2024-02-28T01:31:38;100541.53;;;4.14
73734;BMP280;62039;50.000;9.064;2024-02-28T01:34:05;100535.78;;;4.11
73734;BMP280;62039;50.000;9.064;2024-02-28T01:36:32;100539.66;;;4.05
73734;BMP280;62039;50.000;9.064;2024-02-28T01:38:59;100534.59;;;4.04
73734;BMP280;62039;50.000;9.064;2024-02-28T01:41:26;100538.22;;;4.01
73734;BMP280;62039;50.000;9.064;2024-02-28T01:43:53;100540.91;;;4.00
73734;BMP280;62039;50.000;9.064;2024-02-28T01:46:25;100543.63;;;3.98
73734;BMP280;62039;50.000;9.064;2024-02-28T01:48:52;100540.41;;;3.95
73734;BMP280;62039;50.000;9.064;2024-02-28T01:51:21;100541.44;;;3.92
73734;BMP280;62039;50.000;9.064;2024-02-28T01:53:50;100542.53;;;3.89
73734;BMP280;62039;50.000;9.064;2024-02-28T01:56:19;100534.16;;;3.86
73734;BMP280;62039;50.000;9.064;2024-02-28T01:58:47;100547.31;;;3.83
73734;BMP280;62039;50.000;9.064;2024-02-28T02:01:15;100546.81;;;3.78
73734;BMP280;62039;50.000;9.064;2024-02-28T02:03:45;100558.50;;;3.71
73734;BMP280;62039;50.000;9.064;2024-02-28T02:06:13;100567.63;;;3.64
73734;BMP280;62039;50.000;9.064;2024-02-28T02:08:40;100563.09;;;3.55
73734;BMP280;62039;50.000;9.064;2024-02-28T02:11:07;100569.03;;;3.44
73734;BMP280;62039;50.000;9.064;2024-02-28T02:13:35;100567.81;;;3.37
73734;BMP280;62039;50.000;9.064;2024-02-28T02:16:02;100566.50;;;3.31
73734;BMP280;62039;50.000;9.064;2024-02-28T02:18:29;100574.44;;;3.28
73734;BMP280;62039;50.000;9.064;2024-02-28T02:21:02;100571.88;;;3.28
73734;BMP280;62039;50.000;9.064;2024-02-28T02:23:34;100582.19;;;3.28
73734;BMP280;62039;50.000;9.064;2024-02-28T02:26:02;100577.03;;;3.28
73734;BMP280;62039;50.000;9.064;2024-02-28T02:28:28;100572.69;;;3.29
73734;BMP280;62039;50.000;9.064;2024-02-28T02:30:55;100580.34;;;3.30
73734;BMP280;62039;50.000;9.064;2024-02-28T02:33:22;100575.28;;;3.29
73734;BMP280;62039;50.000;9.064;2024-02-28T02:35:49;100576.09;;;3.29
73734;BMP280;62039;50.000;9.064;2024-02-28T02:38:16;100577.03;;;3.28
73734;BMP280;62039;50.000;9.064;2024-02-28T02:40:48;100570.09;;;3.29
73734;BMP280;62039;50.000;9.064;2024-02-28T02:43:15;100566.69;;;3.28
73734;BMP280;62039;50.000;9.064;2024-02-28T02:45:42;100562.47;;;3.27
73734;BMP280;62039;50.000;9.064;2024-02-28T02:48:09;100567.63;;;3.27
73734;BMP280;62039;50.000;9.064;2024-02-28T02:50:36;100575.38;;;3.27
73734;BMP280;62039;50.000;9.064;2024-02-28T02:53:03;100570.31;;;3.26
73734;BMP280;62039;50.000;9.064;2024-02-28T02:55:30;100572.88;;;3.26
73734;BMP280;62039;50.000;9.064;2024-02-28T02:58:00;100569.59;;;3.24
73734;BMP280;62039;50.000;9.064;2024-02-28T03:00:26;100571.47;;;3.22
73734;BMP280;62039;50.000;9.064;2024-02-28T03:02:53;100577.56;;;3.21
73734;BMP280;62039;50.000;9.064;2024-02-28T03:05:20;100587.06;;;3.20
73734;BMP280;62039;50.000;9.064;2024-02-28T03:07:47;100590.69;;;3.18
73734;BMP280;62039;50.000;9.064;2024-02-28T03:10:14;100601.94;;;3.17
73734;BMP280;62039;50.000;9.064;2024-02-28T03:12:41;100608.88;;;3.16
73734;BMP280;62039;50.000;9.064;2024-02-28T03:15:11;100610.72;;;3.14
73734;BMP280;62039;50.000;9.064;2024-02-28T03:17:38;100616.09;;;3.11
73734;BMP280;62039;50.000;9.064;2024-02-28T03:20:06;100623.84;;;3.11
73734;BMP280;62039;50.000;9.064;2024-02-28T03:22:33;100622.28;;;3.08
73734;BMP280;62039;50.000;9.064;2024-02-28T03:24:59;100622.38;;;3.07
73734;BMP280;62039;50.000;9.064;2024-02-28T03:27:26;100633.66;;;3.06
73734;BMP280;62039;50.000;9.064;2024-02-28T03:29:53;100622.50;;;3.05
73734;BMP280;62039;50.000;9.064;2024-02-28T03:32:23;100632.81;;;3.05
73734;BMP280;62039;50.000;9.064;2024-02-28T03:34:50;100636.44;;;3.03
73734;BMP280;62039;50.000;9.064;2024-02-28T03:37:17;100632.22;;;3.02
73734;BMP280;62039;50.000;9.064;2024-02-28T03:39:44;100635.72;;;3.01
73734;BMP280;62039;50.000;9.064;2024-02-28T03:42:11;100640.88;;;3.01
73734;BMP280;62039;50.000;9.064;2024-02-28T03:44:38;100648.72;;;2.99
73734;BMP280;62039;50.000;9.064;2024-02-28T03:47:05;100647.88;;;2.99
73734;BMP280;62039;50.000;9.064;2024-02-28T03:49:34;100656.56;;;2.98
73734;BMP280;62039;50.000;9.064;2024-02-28T03:52:01;100655.75;;;2.97
73734;BMP280;62039;50.000;9.064;2024-02-28T03:54:28;100663.59;;;2.96
73734;BMP280;62039;50.000;9.064;2024-02-28T03:56:55;100665.44;;;2.94
73734;BMP280;62039;50.000;9.064;2024-02-28T03:59:22;100657.09;;;2.90
73734;BMP280;62039;50.000;9.064;2024-02-28T04:01:49;100652.03;;;2.89
73734;BMP280;62039;50.000;9.064;2024-02-28T04:04:16;100653.88;;;2.87
73734;BMP280;62039;50.000;9.064;2024-02-28T04:06:45;100648.81;;;2.85
73734;BMP280;62039;50.000;9.064;2024-02-28T04:09:12;100647.28;;;2.83
73734;BMP280;62039;50.000;9.064;2024-02-28T04:11:39;100635.41;;;2.80
73734;BMP280;62039;50.000;9.064;2024-02-28T04:14:06;100647.56;;;2.78
73734;BMP280;62039;50.000;9.064;2024-02-28T04:16:33;100648.63;;;2.76
73734;BMP280;62039;50.000;9.064;2024-02-28T04:19:00;100658.19;;;2.73
73734;BMP280;62039;50.000;9.064;2024-02-28T04:21:27;100667.78;;;2.71
73734;BMP280;62039;50.000;9.064;2024-02-28T04:23:56;100668.75;;;2.70
73734;BMP280;62039;50.000;9.064;2024-02-28T04:26:23;100670.59;;;2.68
73734;BMP280;62039;50.000;9.064;2024-02-28T04:28:50;100680.16;;;2.66
73734;BMP280;62039;50.000;9.064;2024-02-28T04:31:17;100677.81;;;2.63
73734;BMP280;62039;50.000;9.064;2024-02-28T04:33:44;100680.47;;;2.62
73734;BMP280;62039;50.000;9.064;2024-02-28T04:36:11;100680.56;;;2.60
73734;BMP280;62039;50.000;9.064;2024-02-28T04:38:38;100680.75;;;2.57
73734;BMP280;62039;50.000;9.064;2024-02-28T04:41:07;100676.56;;;2.56
73734;BMP280;62039;50.000;9.064;2024-02-28T04:43:34;100678.41;;;2.54
73734;BMP280;62039;50.000;9.064;2024-02-28T04:46:01;100677.75;;;2.51
73734;BMP280;62039;50.000;9.064;2024-02-28T04:48:28;100684.78;;;2.49
73734;BMP280;62039;50.000;9.064;2024-02-28T04:50:56;100682.38;;;2.46
73734;BMP280;62039;50.000;9.064;2024-02-28T04:53:23;100680.84;;;2.43
73734;BMP280;62039;50.000;9.064;2024-02-28T04:55:49;100677.53;;;2.41
73734;BMP280;62039;50.000;9.064;2024-02-28T04:58:19;100687.94;;;2.40
73734;BMP280;62039;50.000;9.064;2024-02-28T05:00:46;100691.56;;;2.37
73734;BMP280;62039;50.000;9.064;2024-02-28T05:03:13;100698.56;;;2.35
73734;BMP280;62039;50.000;9.064;2024-02-28T05:05:40;100698.75;;;2.32
73734;BMP280;62039;50.000;9.064;2024-02-28T05:08:07;100704.94;;;2.29
73734;BMP280;62039;50.000;9.064;2024-02-28T05:10:34;100711.94;;;2.27
73734;BMP280;62039;50.000;9.064;2024-02-28T05:13:01;100732.66;;;2.26
73734;BMP280;62039;50.000;9.064;2024-02-28T05:15:30;100744.81;;;2.24
73734;BMP280;62039;50.000;9.064;2024-02-28T05:17:57;100751.00;;;2.21
73734;BMP280;62039;50.000;9.064;2024-02-28T05:20:25;100751.09;;;2.20
73734;BMP280;62039;50.000;9.064;2024-02-28T05:22:51;100758.91;;;2.18
73734;BMP280;62039;50.000;9.064;2024-02-28T05:25:18;100755.50;;;2.18
73734;BMP280;62039;50.000;9.064;2024-02-28T05:27:45;100764.19;;;2.17
73734;BMP280;62039;50.000;9.064;2024-02-28T05:30:13;100765.06;;;2.16
73734;BMP280;62039;50.000;9.064;2024-02-28T05:32:42;100758.25;;;2.15
73734;BMP280;62039;50.000;9.064;2024-02-28T05:35:10;100751.44;;;2.14
73734;BMP280;62039;50.000;9.064;2024-02-28T05:37:37;100756.59;;;2.14
73734;BMP280;62039;50.000;9.064;2024-02-28T05:40:07;100760.09;;;2.13
73734;BMP280;62039;50.000;9.064;2024-02-28T05:42:34;100754.03;;;2.14
73734;BMP280;62039;50.000;9.064;2024-02-28T05:45:01;100760.09;;;2.13
73734;BMP280;62039;50.000;9.064;2024-02-28T05:47:28;100766.91;;;2.14
73734;BMP280;62039;50.000;9.064;2024-02-28T05:49:57;100771.22;;;2.13
73734;BMP280;62039;50.000;9.064;2024-02-28T05:52:24;100781.53;;;2.13
73734;BMP280;62039;50.000;9.064;2024-02-28T05:54:51;100789.19;;;2.15
73734;BMP280;62039;50.000;9.064;2024-02-28T05:57:18;100791.75;;;2.15
73734;BMP280;62039;50.000;9.064;2024-02-28T05:59:45;100785.69;;;2.16
73734;BMP280;62039;50.000;9.064;2024-02-28T06:02:12;100790.84;;;2.16
73734;BMP280;62039;50.000;9.064;2024-02-28T06:04:39;100788.28;;;2.16
73734;BMP280;62039;50.000;9.064;2024-02-28T06:07:09;100789.97;;;2.17
73734;BMP280;62039;50.000;9.064;2024-02-28T06:09:36;100794.16;;;2.18
73734;BMP280;62039;50.000;9.064;2024-02-28T06:12:03;100802.72;;;2.18
73734;BMP280;62039;50.000;9.064;2024-02-28T06:14:30;100801.91;;;2.18
73734;BMP280;62039;50.000;9.064;2024-02-28T06:16:57;100811.28;;;2.19
73734;BMP280;62039;50.000;9.064;2024-02-28T06:19:24;100814.78;;;2.18
73734;BMP280;62039;50.000;9.064;2024-02-28T06:21:51;100813.88;;;2.19
73734;BMP280;62039;50.000;9.064;2024-02-28T06:24:20;100817.38;;;2.18
73734;BMP280;62039;50.000;9.064;2024-02-28T06:26:48;100818.19;;;2.18
73734;BMP280;62039;50.000;9.064;2024-02-28T06:29:16;100830.19;;;2.19
73734;BMP280;62039;50.000;9.064;2024-02-28T06:31:43;100830.25;;;2.18
73734;BMP280;62039;50.000;9.064;2024-02-28T06:34:09;100830.25;;;2.18
73734;BMP280;62039;50.000;9.064;2024-02-28T06:36:40;100842.31;;;2.17
73734;BMP280;62039;50.000;9.064;2024-02-28T06:47:01;100838.00;;;2.18
73734;BMP280;62039;50.000;9.064;2024-02-28T06:49:28;100838.75;;;2.20
73734;BMP280;62039;50.000;9.064;2024-02-28T06:59:53;100849.06;;;2.20
73734;BMP280;62039;50.000;9.064;2024-02-28T07:02:23;100849.06;;;2.20
73734;BMP280;62039;50.000;9.064;2024-02-28T07:04:50;100853.28;;;2.21
73734;BMP280;62039;50.000;9.064;2024-02-28T07:07:17;100850.50;;;2.24
73734;BMP280;62039;50.000;9.064;2024-02-28T07:09:43;100856.41;;;2.26
73734;BMP280;62039;50.000;9.064;2024-02-28T07:12:10;100859.72;;;2.28
73734;BMP280;62039;50.000;9.064;2024-02-28T07:14:37;100854.38;;;2.31
73734;BMP280;62039;50.000;9.064;2024-02-28T07:17:04;100848.28;;;2.32
73734;BMP280;62039;50.000;9.064;2024-02-28T07:19:34;100847.22;;;2.36
73734;BMP280;62039;50.000;9.064;2024-02-28T07:22:01;100852.25;;;2.38
73734;BMP280;62039;50.000;9.064;2024-02-28T07:24:28;100864.13;;;2.40
73734;BMP280;62039;50.000;9.064;2024-02-28T07:26:55;100862.28;;;2.42
73734;BMP280;62039;50.000;9.064;2024-02-28T07:29:22;100858.69;;;2.45
73734;BMP280;62039;50.000;9.064;2024-02-28T07:31:49;100855.84;;;2.49
73734;BMP280;62039;50.000;9.064;2024-02-28T07:34:16;100852.34;;;2.50
73734;BMP280;62039;50.000;9.064;2024-02-28T07:36:46;100862.38;;;2.55
73734;BMP280;62039;50.000;9.064;2024-02-28T07:39:13;100860.63;;;2.55
73734;BMP280;62039;50.000;9.064;2024-02-28T07:41:40;100866.41;;;2.59
73734;BMP280;62039;50.000;9.064;2024-02-28T07:44:07;100872.31;;;2.61
73734;BMP280;62039;50.000;9.064;2024-02-28T07:46:34;100871.28;;;2.63
73734;BMP280;62039;50.000;9.064;2024-02-28T07:49:01;100882.31;;;2.65
73734;BMP280;62039;50.000;9.064;2024-02-28T07:51:28;100887.31;;;2.68
73734;BMP280;62039;50.000;9.064;2024-02-28T07:53:58;100885.47;;;2.70
73734;BMP280;62039;50.000;9.064;2024-02-28T07:56:25;100879.34;;;2.71
73734;BMP280;62039;50.000;9.064;2024-02-28T07:58:52;100880.09;;;2.73
73734;BMP280;62039;50.000;9.064;2024-02-28T08:01:18;100875.78;;;2.74
73734;BMP280;62039;50.000;9.064;2024-02-28T08:03:46;100882.38;;;2.78
73734;BMP280;62039;50.000;9.064;2024-02-28T08:06:13;100886.53;;;2.81
73734;BMP280;62039;50.000;9.064;2024-02-28T08:08:40;100888.94;;;2.84
73734;BMP280;62039;50.000;9.064;2024-02-28T08:11:09;100891.31;;;2.87
73734;BMP280;62039;50.000;9.064;2024-02-28T08:13:36;100904.13;;;2.88
73734;BMP280;62039;50.000;9.064;2024-02-28T08:16:04;100902.28;;;2.90
73734;BMP280;62039;50.000;9.064;2024-02-28T08:18:31;100901.25;;;2.93
73734;BMP280;62039;50.000;9.064;2024-02-28T08:20:59;100891.66;;;2.95
73734;BMP280;62039;50.000;9.064;2024-02-28T08:23:26;100892.41;;;2.97
73734;BMP280;62039;50.000;9.064;2024-02-28T08:25:53;100888.78;;;2.99
73734;BMP280;62039;50.000;9.064;2024-02-28T08:28:23;100882.59;;;3.02
73734;BMP280;62039;50.000;9.064;2024-02-28T08:30:50;100878.19;;;3.04
73734;BMP280;62039;50.000;9.064;2024-02-28T08:33:17;100880.63;;;3.05
73734;BMP280;62039;50.000;9.064;2024-02-28T08:35:48;100880.47;;;3.08
73734;BMP280;62039;50.000;9.064;2024-02-28T08:38:15;100881.19;;;3.10
73734;BMP280;62039;50.000;9.064;2024-02-28T08:40:42;100886.06;;;3.15
73734;BMP280;62039;50.000;9.064;2024-02-28T08:43:09;100895.38;;;3.18
73734;BMP280;62039;50.000;9.064;2024-02-28T08:45:38;100898.66;;;3.20
73734;BMP280;62039;50.000;9.064;2024-02-28T08:48:07;100913.13;;;3.22
73734;BMP280;62039;50.000;9.064;2024-02-28T08:50:34;100912.22;;;3.23
73734;BMP280;62039;50.000;9.064;2024-02-28T08:53:01;100901.75;;;3.25
73734;BMP280;62039;50.000;9.064;2024-02-28T08:55:28;100904.25;;;3.26
73734;BMP280;62039;50.000;9.064;2024-02-28T08:57:56;100907.56;;;3.28
73734;BMP280;62039;50.000;9.064;2024-02-28T09:00:23;100914.09;;;3.34
73734;BMP280;62039;50.000;9.064;2024-02-28T09:02:52;100907.81;;;3.38
73734;BMP280;62039;50.000;9.064;2024-02-28T09:05:19;100904.28;;;3.39
73734;BMP280;62039;50.000;9.064;2024-02-28T09:07:46;100911.75;;;3.43
73734;BMP280;62039;50.000;9.064;2024-02-28T09:10:13;100913.22;;;3.47
73734;BMP280;62039;50.000;9.064;2024-02-28T09:12:40;100912.09;;;3.51
73734;BMP280;62039;50.000;9.064;2024-02-28T09:15:07;100910.97;;;3.56
73734;BMP280;62039;50.000;9.064;2024-02-28T09:17:34;100904.56;;;3.61
73734;BMP280;62039;50.000;9.064;2024-02-28T09:20:05;100904.97;;;3.68
73734;BMP280;62039;50.000;9.064;2024-02-28T09:22:32;100909.75;;;3.74
73734;BMP280;62039;50.000;9.064;2024-02-28T09:24:59;100915.34;;;3.80
73734;BMP280;62039;50.000;9.064;2024-02-28T09:27:26;100912.34;;;3.86
73734;BMP280;62039;50.000;9.064;2024-02-28T09:29:53;100909.25;;;3.94
73734;BMP280;62039;50.000;9.064;2024-02-28T09:32:20;100919.19;;;4.00
73734;BMP280;62039;50.000;9.064;2024-02-28T09:34:47;100925.59;;;4.07
73734;BMP280;62039;50.000;9.064;2024-02-28T09:37:17;100938.75;;;4.17
73734;BMP280;62039;50.000;9.064;2024-02-28T09:39:44;100938.44;;;4.21
73734;BMP280;62039;50.000;9.064;2024-02-28T09:42:11;100949.19;;;4.28
73734;BMP280;62039;50.000;9.064;2024-02-28T09:44:39;100950.75;;;4.30
73734;BMP280;62039;50.000;9.064;2024-02-28T09:47:07;100953.84;;;4.36
73734;BMP280;62039;50.000;9.064;2024-02-28T09:49:35;100958.59;;;4.42
73734;BMP280;62039;50.000;9.064;2024-02-28T09:52:03;100952.06;;;4.49
73734;BMP280;62039;50.000;9.064;2024-02-28T09:54:33;100954.03;;;4.58
73734;BMP280;62039;50.000;9.064;2024-02-28T09:57:00;100955.03;;;4.68
73734;BMP280;62039;50.000;9.064;2024-02-28T09:59:28;100962.91;;;4.79
73734;BMP280;62039;50.000;9.064;2024-02-28T10:02:10;100960.47;;;4.89
73734;BMP280;62039;50.000;9.064;2024-02-28T10:04:37;100957.25;;;4.98
73734;BMP280;62039;50.000;9.064;2024-02-28T10:07:10;100959.31;;;5.05
73734;BMP280;62039;50.000;9.064;2024-02-28T10:09:40;100958.88;;;5.12
73734;BMP280;62039;50.000;9.064;2024-02-28T10:12:07;100955.78;;;5.19
73734;BMP280;62039;50.000;9.064;2024-02-28T10:14:34;100953.22;;;5.30
73734;BMP280;62039;50.000;9.064;2024-02-28T10:17:01;100955.97;;;5.40
73734;BMP280;62039;50.000;9.064;2024-02-28T10:19:28;100964.72;;;5.50
73734;BMP280;62039;50.000;9.064;2024-02-28T10:21:55;100964.38;;;5.55
73734;BMP280;62039;50.000;9.064;2024-02-28T10:24:24;100968.31;;;5.60
73734;BMP280;62039;50.000;9.064;2024-02-28T10:26:53;100974.09;;;5.64
73734;BMP280;62039;50.000;9.064;2024-02-28T10:29:20;100969.63;;;5.66
73734;BMP280;62039;50.000;9.064;2024-02-28T10:31:47;100967.72;;;5.68
73734;BMP280;62039;50.000;9.064;2024-02-28T10:34:16;100971.66;;;5.73
73734;BMP280;62039;50.000;9.064;2024-02-28T10:36:44;100969.44;;;5.80
73734;BMP280;62039;50.000;9.064;2024-02-28T10:39:11;100965.47;;;5.87
73734;BMP280;62039;50.000;9.064;2024-02-28T10:41:38;100963.00;;;5.97
73734;BMP280;62039;50.000;9.064;2024-02-28T10:44:09;100977.63;;;6.09
73734;BMP280;62039;50.000;9.064;2024-02-28T10:46:37;100966.34;;;6.21
73734;BMP280;62039;50.000;9.064;2024-02-28T10:49:05;100973.06;;;6.35
73734;BMP280;62039;50.000;9.064;2024-02-28T10:51:34;100965.78;;;6.51
73734;BMP280;62039;50.000;9.064;2024-02-28T10:54:08;100968.88;;;6.67
73734;BMP280;62039;50.000;9.064;2024-02-28T10:56:35;100970.25;;;6.82
73734;BMP280;62039;50.000;9.064;2024-02-28T10:59:02;100965.75;;;6.95
73734;BMP280;62039;50.000;9.064;2024-02-28T11:01:33;100971.50;;;7.10
73734;BMP280;62039;50.000;9.064;2024-02-28T11:04:01;100965.31;;;7.22
73734;BMP280;62039;50.000;9.064;2024-02-28T11:06:29;100969.28;;;7.37
73734;BMP280;62039;50.000;9.064;2024-02-28T11:08:59;100973.06;;;7.56
73734;BMP280;62039;50.000;9.064;2024-02-28T11:11:30;100970.72;;;7.73
73734;BMP280;62039;50.000;9.064;2024-02-28T11:13:58;100961.50;;;7.90
73734;BMP280;62039;50.000;9.064;2024-02-28T11:16:29;100961.50;;;8.11
73734;BMP280;62039;50.000;9.064;2024-02-28T11:19:00;100948.72;;;8.29
73734;BMP280;62039;50.000;9.064;2024-02-28T11:21:28;100961.00;;;8.47
73734;BMP280;62039;50.000;9.064;2024-02-28T11:23:57;100953.41;;;8.65
73734;BMP280;62039;50.000;9.064;2024-02-28T11:26:25;100952.09;;;8.80
73734;BMP280;62039;50.000;9.064;2024-02-28T11:28:52;100948.81;;;8.97
73734;BMP280;62039;50.000;9.064;2024-02-28T11:31:19;100948.19;;;9.15
73734;BMP280;62039;50.000;9.064;2024-02-28T11:33:45;100948.75;;;9.28
73734;BMP280;62039;50.000;9.064;2024-02-28T11:36:15;100949.97;;;9.43
73734;BMP280;62039;50.000;9.064;2024-02-28T11:38:42;100950.53;;;9.56
73734;BMP280;62039;50.000;9.064;2024-02-28T11:41:09;100960.41;;;9.72
73734;BMP280;62039;50.000;9.064;2024-02-28T11:43:36;100951.31;;;9.86
73734;BMP280;62039;50.000;9.064;2024-02-28T11:46:17;100956.66;;;10.03
73734;BMP280;62039;50.000;9.064;2024-02-28T11:48:45;100949.88;;;10.20
73734;BMP280;62039;50.000;9.064;2024-02-28T11:51:15;100943.91;;;10.37
73734;BMP280;62039;50.000;9.064;2024-02-28T11:53:42;100946.06;;;10.51
73734;BMP280;62039;50.000;9.064;2024-02-28T11:56:09;100938.41;;;10.68
73734;BMP280;62039;50.000;9.064;2024-02-28T11:58:35;100937.94;;;10.82
73734;BMP280;62039;50.000;9.064;2024-02-28T12:01:03;100931.09;;;10.98
73734;BMP280;62039;50.000;9.064;2024-02-28T12:03:30;100930.72;;;11.11
73734;BMP280;62039;50.000;9.064;2024-02-28T12:05:57;100932.81;;;11.25
73734;BMP280;62039;50.000;9.064;2024-02-28T12:08:27;100924.44;;;11.39
73734;BMP280;62039;50.000;9.064;2024-02-28T12:11:06;100913.63;;;11.52
73734;BMP280;62039;50.000;9.064;2024-02-28T12:13:33;100920.09;;;11.66
73734;BMP280;62039;50.000;9.064;2024-02-28T12:16:00;100915.28;;;11.79
73734;BMP280;62039;50.000;9.064;2024-02-28T12:18:27;100904.41;;;11.92
73734;BMP280;62039;50.000;9.064;2024-02-28T12:20:54;100896.78;;;12.06
73734;BMP280;62039;50.000;9.064;2024-02-28T12:23:21;100895.22;;;12.22
73734;BMP280;62039;50.000;9.064;2024-02-28T12:25:51;100893.69;;;12.37
73734;BMP280;62039;50.000;9.064;2024-02-28T12:28:18;100901.75;;;12.51
73734;BMP280;62039;50.000;9.064;2024-02-28T12:30:45;100900.81;;;12.61
73734;BMP280;62039;50.000;9.064;2024-02-28T12:33:12;100901.97;;;12.66
73734;BMP280;62039;50.000;9.064;2024-02-28T12:35:39;100886.28;;;12.74
73734;BMP280;62039;50.000;9.064;2024-02-28T12:38:06;100889.56;;;12.84
73734;BMP280;62039;50.000;9.064;2024-02-28T12:40:33;100889.56;;;12.92
73734;BMP280;62039;50.000;9.064;2024-02-28T12:43:03;100878.91;;;13.02
73734;BMP280;62039;50.000;9.064;2024-02-28T12:45:30;100874.66;;;13.09
73734;BMP280;62039;50.000;9.064;2024-02-28T12:47:57;100874.53;;;13.19
73734;BMP280;62039;50.000;9.064;2024-02-28T12:50:24;100867.31;;;13.29
73734;BMP280;62039;50.000;9.064;2024-02-28T12:52:51;100862.56;;;13.41
73734;BMP280;62039;50.000;9.064;2024-02-28T12:55:18;100864.00;;;13.51
73734;BMP280;62039;50.000;9.064;2024-02-28T12:57:45;100860.22;;;13.62
73734;BMP280;62039;50.000;9.064;2024-02-28T13:00:15;100861.69;;;13.72
73734;BMP280;62039;50.000;9.064;2024-02-28T13:02:43;100861.47;;;13.82
73734;BMP280;62039;50.000;9.064;2024-02-28T13:05:11;100857.38;;;13.88
73734;BMP280;62039;50.000;9.064;2024-02-28T13:07:38;100858.34;;;13.95
73734;BMP280;62039;50.000;9.064;2024-02-28T13:10:06;100852.91;;;14.04
73734;BMP280;62039;50.000;9.064;2024-02-28T13:12:33;100844.19;;;14.12
73734;BMP280;62039;50.000;9.064;2024-02-28T13:15:00;100849.03;;;14.23
73734;BMP280;62039;50.000;9.064;2024-02-28T13:17:30;100848.03;;;14.32
73734;BMP280;62039;50.000;9.064;2024-02-28T13:19:57;100837.31;;;14.42
73734;BMP280;62039;50.000;9.064;2024-02-28T13:22:24;100830.00;;;14.52
73734;BMP280;62039;50.000;9.064;2024-02-28T13:24:51;100839.13;;;14.64
73734;BMP280;62039;50.000;9.064;2024-02-28T13:27:18;100835.31;;;14.75
73734;BMP280;62039;50.000;9.064;2024-02-28T13:29:45;100833.09;;;14.86
73734;BMP280;62039;50.000;9.064;2024-02-28T13:32:12;100831.84;;;14.97
73734;BMP280;62039;50.000;9.064;2024-02-28T13:34:41;100835.06;;;15.07
73734;BMP280;62039;50.000;9.064;2024-02-28T13:37:11;100825.91;;;15.18
73734;BMP280;62039;50.000;9.064;2024-02-28T13:39:38;100822.66;;;15.30
73734;BMP280;62039;50.000;9.064;2024-02-28T13:42:06;100823.69;;;15.44
73734;BMP280;62039;50.000;9.064;2024-02-28T13:44:33;100814.41;;;15.56
73734;BMP280;62039;50.000;9.064;2024-02-28T13:47:00;100795.50;;;15.67
73734;BMP280;62039;50.000;9.064;2024-02-28T13:49:27;100799.13;;;15.81
73734;BMP280;62039;50.000;9.064;2024-02-28T13:51:56;100799.03;;;15.89
73734;BMP280;62039;50.000;9.064;2024-02-28T13:54:23;100801.56;;;15.97
73734;BMP280;62039;50.000;9.064;2024-02-28T13:56:50;100796.56;;;16.02
73734;BMP280;62039;50.000;9.064;2024-02-28T13:59:17;100798.28;;;16.10
73734;BMP280;62039;50.000;9.064;2024-02-28T14:01:44;100790.16;;;16.12
73734;BMP280;62039;50.000;9.064;2024-02-28T14:04:11;100790.16;;;16.12
73734;BMP280;62039;50.000;9.064;2024-02-28T14:06:38;100788.56;;;16.11
73734;BMP280;62039;50.000;9.064;2024-02-28T14:09:08;100790.72;;;16.07
73734;BMP280;62039;50.000;9.064;2024-02-28T14:11:35;100797.19;;;16.04
73734;BMP280;62039;50.000;9.064;2024-02-28T14:14:02;100798.19;;;16.03
73734;BMP280;62039;50.000;9.064;2024-02-28T14:16:29;100791.47;;;16.01
73734;BMP280;62039;50.000;9.064;2024-02-28T14:18:56;100793.47;;;15.99
73734;BMP280;62039;50.000;9.064;2024-02-28T14:21:23;100792.38;;;15.93
73734;BMP280;62039;50.000;9.064;2024-02-28T14:23:51;100793.31;;;15.86